sensor_id;sensor_type;location;lat;lon;timestamp;temperature;humidity
1812;DHT22;904;47.814;11.134;2022-07-10T00:02:06;19.50;90.00
1812;DHT22;904;47.814;11.134;2022-07-10T00:04:34;19.40;89.30
1812;DHT22;904;47.814;11.134;2022-07-10T00:07:01;19.40;89.20
1812;DHT22;904;47.814;11.134;2022-07-10T00:09:31;19.40;89.60
1812;DHT22;904;47.814;11.134;2022-07-10T00:11:58;19.40;90.50
1812;DHT22;904;47.814;11.134;2022-07-10T00:14:25;19.40;90.60
1812;DHT22;904;47.814;11.134;2022-07-10T00:16:52;19.30;90.80
1812;DHT22;904;47.814;11.134;2022-07-10T00:19:19;19.30;90.50
1812;DHT22;904;47.814;11.134;2022-07-10T00:21:46;19.20;90.20
1812;DHT22;904;47.814;11.134;2022-07-10T00:24:13;19.20;90.20
1812;DHT22;904;47.814;11.134;2022-07-10T00:26:42;19.10;90.80
1812;DHT22;904;47.814;11.134;2022-07-10T00:29:09;19.10;91.20
1812;DHT22;904;47.814;11.134;2022-07-10T00:31:36;19.10;91.40
1812;DHT22;904;47.814;11.134;2022-07-10T00:34:03;19.00;91.30
1812;DHT22;904;47.814;11.134;2022-07-10T00:36:32;19.00;91.30
1812;DHT22;904;47.814;11.134;2022-07-10T00:38:59;19.00;91.50
1812;DHT22;904;47.814;11.134;2022-07-10T00:41:26;18.90;91.40
1812;DHT22;904;47.814;11.134;2022-07-10T00:43:57;18.90;91.90
1812;DHT22;904;47.814;11.134;2022-07-10T00:46:25;18.80;92.30
1812;DHT22;904;47.814;11.134;2022-07-10T00:48:53;18.80;92.50
1812;DHT22;904;47.814;11.134;2022-07-10T00:51:22;18.80;92.60
1812;DHT22;904;47.814;11.134;2022-07-10T00:53:50;18.70;92.50
1812;DHT22;904;47.814;11.134;2022-07-10T00:56:27;18.70;92.70
1812;DHT22;904;47.814;11.134;2022-07-10T00:58:56;18.60;92.90
1812;DHT22;904;47.814;11.134;2022-07-10T01:01:24;18.60;93.10
1812;DHT22;904;47.814;11.134;2022-07-10T01:03:51;18.60;93.20
1812;DHT22;904;47.814;11.134;2022-07-10T01:06:18;18.60;93.30
1812;DHT22;904;47.814;11.134;2022-07-10T01:08:45;18.60;93.40
1812;DHT22;904;47.814;11.134;2022-07-10T01:11:14;18.60;93.50
1812;DHT22;904;47.814;11.134;2022-07-10T01:13:42;18.60;93.70
1812;DHT22;904;47.814;11.134;2022-07-10T01:16:11;18.70;93.70
1812;DHT22;904;47.814;11.134;2022-07-10T01:18:38;18.60;93.70
1812;DHT22;904;47.814;11.134;2022-07-10T01:21:23;18.60;93.70
1812;DHT22;904;47.814;11.134;2022-07-10T01:23:50;18.60;93.60
1812;DHT22;904;47.814;11.134;2022-07-10T01:26:18;18.60;93.70
1812;DHT22;904;47.814;11.134;2022-07-10T01:28:48;18.60;93.80
1812;DHT22;904;47.814;11.134;2022-07-10T01:31:17;18.60;94.00
1812;DHT22;904;47.814;11.134;2022-07-10T01:33:44;18.50;94.30
1812;DHT22;904;47.814;11.134;2022-07-10T01:36:13;18.50;94.30
1812;DHT22;904;47.814;11.134;2022-07-10T01:38:40;18.50;94.40
1812;DHT22;904;47.814;11.134;2022-07-10T01:41:07;18.50;94.50
1812;DHT22;904;47.814;11.134;2022-07-10T01:43:35;18.40;94.60
1812;DHT22;904;47.814;11.134;2022-07-10T01:46:02;18.40;94.70
1812;DHT22;904;47.814;11.134;2022-07-10T01:48:29;18.40;94.90
1812;DHT22;904;47.814;11.134;2022-07-10T01:50:57;18.40;95.20
1812;DHT22;904;47.814;11.134;2022-07-10T01:53:25;18.30;95.40
1812;DHT22;904;47.814;11.134;2022-07-10T01:55:52;18.30;95.60
1812;DHT22;904;47.814;11.134;2022-07-10T01:58:20;18.30;95.70
1812;DHT22;904;47.814;11.134;2022-07-10T02:00:47;18.30;95.80
1812;DHT22;904;47.814;11.134;2022-07-10T02:03:14;18.30;96.00
1812;DHT22;904;47.814;11.134;2022-07-10T02:05:58;18.30;95.80
1812;DHT22;904;47.814;11.134;2022-07-10T02:08:27;18.30;95.90
1812;DHT22;904;47.814;11.134;2022-07-10T02:10:54;18.30;96.10
1812;DHT22;904;47.814;11.134;2022-07-10T02:13:21;18.30;95.80
1812;DHT22;904;47.814;11.134;2022-07-10T02:15:50;18.30;95.80
1812;DHT22;904;47.814;11.134;2022-07-10T02:18:17;18.30;96.00
1812;DHT22;904;47.814;11.134;2022-07-10T02:20:44;18.20;96.00
1812;DHT22;904;47.814;11.134;2022-07-10T02:23:12;18.20;96.00
1812;DHT22;904;47.814;11.134;2022-07-10T02:25:40;18.20;96.20
1812;DHT22;904;47.814;11.134;2022-07-10T02:28:08;18.20;96.30
1812;DHT22;904;47.814;11.134;2022-07-10T02:30:36;18.20;96.70
1812;DHT22;904;47.814;11.134;2022-07-10T02:33:03;18.20;96.20
1812;DHT22;904;47.814;11.134;2022-07-10T02:35:30;18.20;96.30
1812;DHT22;904;47.814;11.134;2022-07-10T02:37:57;18.10;96.20
1812;DHT22;904;47.814;11.134;2022-07-10T02:40:25;18.00;96.40
1812;DHT22;904;47.814;11.134;2022-07-10T02:42:53;18.00;96.80
1812;DHT22;904;47.814;11.134;2022-07-10T02:45:20;17.80;97.20
1812;DHT22;904;47.814;11.134;2022-07-10T02:47:47;17.80;98.50
1812;DHT22;904;47.814;11.134;2022-07-10T02:50:14;17.70;94.00
1812;DHT22;904;47.814;11.134;2022-07-10T02:52:41;17.70;93.90
1812;DHT22;904;47.814;11.134;2022-07-10T02:55:09;17.70;94.00
1812;DHT22;904;47.814;11.134;2022-07-10T02:57:36;17.70;94.00
1812;DHT22;904;47.814;11.134;2022-07-10T03:00:05;17.70;94.40
1812;DHT22;904;47.814;11.134;2022-07-10T03:02:33;17.60;94.60
1812;DHT22;904;47.814;11.134;2022-07-10T03:05:00;17.60;94.60
1812;DHT22;904;47.814;11.134;2022-07-10T03:07:27;17.50;95.20
1812;DHT22;904;47.814;11.134;2022-07-10T03:09:54;17.30;95.70
1812;DHT22;904;47.814;11.134;2022-07-10T03:12:21;17.40;96.00
1812;DHT22;904;47.814;11.134;2022-07-10T03:14:48;17.40;95.90
1812;DHT22;904;47.814;11.134;2022-07-10T03:17:17;17.40;95.70
1812;DHT22;904;47.814;11.134;2022-07-10T03:19:44;17.40;95.50
1812;DHT22;904;47.814;11.134;2022-07-10T03:22:11;17.50;95.60
1812;DHT22;904;47.814;11.134;2022-07-10T03:24:38;17.50;95.60
1812;DHT22;904;47.814;11.134;2022-07-10T03:27:05;17.50;95.80
1812;DHT22;904;47.814;11.134;2022-07-10T03:29:32;17.60;96.10
1812;DHT22;904;47.814;11.134;2022-07-10T03:31:59;17.60;96.10
1812;DHT22;904;47.814;11.134;2022-07-10T03:34:28;17.60;96.20
1812;DHT22;904;47.814;11.134;2022-07-10T03:36:55;17.60;96.20
1812;DHT22;904;47.814;11.134;2022-07-10T03:39:22;17.70;96.30
1812;DHT22;904;47.814;11.134;2022-07-10T03:41:49;17.70;96.00
1812;DHT22;904;47.814;11.134;2022-07-10T03:44:17;17.70;95.80
1812;DHT22;904;47.814;11.134;2022-07-10T03:46:44;17.70;95.80
1812;DHT22;904;47.814;11.134;2022-07-10T03:49:11;17.60;95.90
1812;DHT22;904;47.814;11.134;2022-07-10T03:51:40;17.60;96.50
1812;DHT22;904;47.814;11.134;2022-07-10T03:54:07;17.70;96.60
1812;DHT22;904;47.814;11.134;2022-07-10T03:56:34;17.70;96.10
1812;DHT22;904;47.814;11.134;2022-07-10T03:59:18;17.70;96.50
1812;DHT22;904;47.814;11.134;2022-07-10T04:01:46;17.70;96.30
1812;DHT22;904;47.814;11.134;2022-07-10T04:04:13;17.70;96.50
1812;DHT22;904;47.814;11.134;2022-07-10T04:06:41;17.70;96.50
1812;DHT22;904;47.814;11.134;2022-07-10T04:09:08;17.70;96.50
1812;DHT22;904;47.814;11.134;2022-07-10T04:11:35;17.60;96.90
1812;DHT22;904;47.814;11.134;2022-07-10T04:14:03;17.60;96.90
1812;DHT22;904;47.814;11.134;2022-07-10T04:16:30;17.60;97.10
1812;DHT22;904;47.814;11.134;2022-07-10T04:18:57;17.70;96.90
1812;DHT22;904;47.814;11.134;2022-07-10T04:21:25;17.70;96.90
1812;DHT22;904;47.814;11.134;2022-07-10T04:23:53;17.70;97.00
1812;DHT22;904;47.814;11.134;2022-07-10T04:26:20;17.70;97.20
1812;DHT22;904;47.814;11.134;2022-07-10T04:28:47;17.80;97.20
1812;DHT22;904;47.814;11.134;2022-07-10T04:31:15;17.80;97.20
1812;DHT22;904;47.814;11.134;2022-07-10T04:33:42;17.90;97.00
1812;DHT22;904;47.814;11.134;2022-07-10T04:36:09;17.90;96.70
1812;DHT22;904;47.814;11.134;2022-07-10T04:38:37;17.90;96.50
1812;DHT22;904;47.814;11.134;2022-07-10T04:41:05;18.00;96.40
1812;DHT22;904;47.814;11.134;2022-07-10T04:43:32;18.00;96.60
1812;DHT22;904;47.814;11.134;2022-07-10T04:45:59;18.10;96.70
1812;DHT22;904;47.814;11.134;2022-07-10T04:48:26;18.10;96.90
1812;DHT22;904;47.814;11.134;2022-07-10T04:50:54;18.10;96.80
1812;DHT22;904;47.814;11.134;2022-07-10T04:53:21;18.20;96.60
1812;DHT22;904;47.814;11.134;2022-07-10T04:55:48;18.30;96.80
1812;DHT22;904;47.814;11.134;2022-07-10T04:58:16;18.40;97.00
1812;DHT22;904;47.814;11.134;2022-07-10T05:00:44;18.40;96.90
1812;DHT22;904;47.814;11.134;2022-07-10T05:03:11;18.50;97.00
1812;DHT22;904;47.814;11.134;2022-07-10T05:05:38;18.50;96.20
1812;DHT22;904;47.814;11.134;2022-07-10T05:08:05;18.60;96.10
1812;DHT22;904;47.814;11.134;2022-07-10T05:10:32;18.60;95.80
1812;DHT22;904;47.814;11.134;2022-07-10T05:12:59;18.60;95.50
1812;DHT22;904;47.814;11.134;2022-07-10T05:15:28;18.50;95.80
1812;DHT22;904;47.814;11.134;2022-07-10T05:17:55;18.60;95.70
1812;DHT22;904;47.814;11.134;2022-07-10T05:20:22;18.60;95.60
1812;DHT22;904;47.814;11.134;2022-07-10T05:22:49;18.60;95.70
1812;DHT22;904;47.814;11.134;2022-07-10T05:25:16;18.60;95.40
1812;DHT22;904;47.814;11.134;2022-07-10T05:27:43;18.70;95.30
1812;DHT22;904;47.814;11.134;2022-07-10T05:30:10;18.80;95.10
1812;DHT22;904;47.814;11.134;2022-07-10T05:32:44;18.80;94.80
1812;DHT22;904;47.814;11.134;2022-07-10T05:35:12;18.90;94.40
1812;DHT22;904;47.814;11.134;2022-07-10T05:37:41;18.90;94.20
1812;DHT22;904;47.814;11.134;2022-07-10T05:40:09;18.90;94.20
1812;DHT22;904;47.814;11.134;2022-07-10T05:42:36;18.90;93.90
1812;DHT22;904;47.814;11.134;2022-07-10T05:45:04;18.90;93.70
1812;DHT22;904;47.814;11.134;2022-07-10T05:47:32;18.90;93.70
1812;DHT22;904;47.814;11.134;2022-07-10T05:50:01;18.90;93.50
1812;DHT22;904;47.814;11.134;2022-07-10T05:52:29;18.80;93.30
1812;DHT22;904;47.814;11.134;2022-07-10T05:54:56;18.90;93.40
1812;DHT22;904;47.814;11.134;2022-07-10T05:57:23;18.80;93.40
1812;DHT22;904;47.814;11.134;2022-07-10T05:59:50;18.80;93.30
1812;DHT22;904;47.814;11.134;2022-07-10T06:02:18;18.80;93.20
1812;DHT22;904;47.814;11.134;2022-07-10T06:04:45;18.80;93.30
1812;DHT22;904;47.814;11.134;2022-07-10T06:07:14;18.80;93.30
1812;DHT22;904;47.814;11.134;2022-07-10T06:09:41;18.80;93.00
1812;DHT22;904;47.814;11.134;2022-07-10T06:12:08;18.80;93.00
1812;DHT22;904;47.814;11.134;2022-07-10T06:14:35;18.80;93.30
1812;DHT22;904;47.814;11.134;2022-07-10T06:17:03;18.80;93.20
1812;DHT22;904;47.814;11.134;2022-07-10T06:19:30;18.70;92.70
1812;DHT22;904;47.814;11.134;2022-07-10T06:21:57;18.70;92.60
1812;DHT22;904;47.814;11.134;2022-07-10T06:24:51;18.70;92.90
1812;DHT22;904;47.814;11.134;2022-07-10T06:27:18;18.80;92.80
1812;DHT22;904;47.814;11.134;2022-07-10T06:29:46;18.80;92.40
1812;DHT22;904;47.814;11.134;2022-07-10T06:32:13;18.90;92.30
1812;DHT22;904;47.814;11.134;2022-07-10T06:34:40;18.90;92.20
1812;DHT22;904;47.814;11.134;2022-07-10T06:37:07;18.90;91.80
1812;DHT22;904;47.814;11.134;2022-07-10T06:39:34;18.90;91.80
1812;DHT22;904;47.814;11.134;2022-07-10T06:42:04;18.90;91.70
1812;DHT22;904;47.814;11.134;2022-07-10T06:44:31;18.90;91.70
1812;DHT22;904;47.814;11.134;2022-07-10T06:46:59;18.90;91.90
1812;DHT22;904;47.814;11.134;2022-07-10T06:49:44;18.90;92.20
1812;DHT22;904;47.814;11.134;2022-07-10T06:52:12;18.90;92.50
1812;DHT22;904;47.814;11.134;2022-07-10T06:54:39;18.90;92.50
1812;DHT22;904;47.814;11.134;2022-07-10T06:57:08;19.00;92.20
1812;DHT22;904;47.814;11.134;2022-07-10T06:59:35;19.00;92.20
1812;DHT22;904;47.814;11.134;2022-07-10T07:02:03;19.00;92.00
1812;DHT22;904;47.814;11.134;2022-07-10T07:04:30;19.20;92.20
1812;DHT22;904;47.814;11.134;2022-07-10T07:06:57;19.20;92.10
1812;DHT22;904;47.814;11.134;2022-07-10T07:09:24;19.30;92.30
1812;DHT22;904;47.814;11.134;2022-07-10T07:11:51;19.40;92.10
1812;DHT22;904;47.814;11.134;2022-07-10T07:14:19;19.50;91.50
1812;DHT22;904;47.814;11.134;2022-07-10T07:16:46;19.60;91.60
1812;DHT22;904;47.814;11.134;2022-07-10T07:19:23;19.60;91.30
1812;DHT22;904;47.814;11.134;2022-07-10T07:21:57;19.70;90.70
1812;DHT22;904;47.814;11.134;2022-07-10T07:24:42;19.70;90.40
1812;DHT22;904;47.814;11.134;2022-07-10T07:27:09;19.60;90.00
1812;DHT22;904;47.814;11.134;2022-07-10T07:29:38;19.60;89.70
1812;DHT22;904;47.814;11.134;2022-07-10T07:32:06;19.50;90.00
1812;DHT22;904;47.814;11.134;2022-07-10T07:34:33;19.50;90.00
1812;DHT22;904;47.814;11.134;2022-07-10T07:37:00;19.50;89.60
1812;DHT22;904;47.814;11.134;2022-07-10T07:39:27;19.50;89.60
1812;DHT22;904;47.814;11.134;2022-07-10T07:41:54;19.50;90.10
1812;DHT22;904;47.814;11.134;2022-07-10T07:44:21;19.60;90.20
1812;DHT22;904;47.814;11.134;2022-07-10T07:46:49;19.70;89.20
1812;DHT22;904;47.814;11.134;2022-07-10T07:49:16;19.80;88.50
1812;DHT22;904;47.814;11.134;2022-07-10T07:51:43;19.90;88.10
1812;DHT22;904;47.814;11.134;2022-07-10T07:54:11;20.00;88.20
1812;DHT22;904;47.814;11.134;2022-07-10T07:56:38;20.10;88.60
1812;DHT22;904;47.814;11.134;2022-07-10T07:59:08;20.30;88.50
1812;DHT22;904;47.814;11.134;2022-07-10T08:01:36;20.40;87.40
1812;DHT22;904;47.814;11.134;2022-07-10T08:04:05;20.40;86.20
1812;DHT22;904;47.814;11.134;2022-07-10T08:06:32;20.40;84.80
1812;DHT22;904;47.814;11.134;2022-07-10T08:08:59;20.40;84.00
1812;DHT22;904;47.814;11.134;2022-07-10T08:11:26;20.40;83.70
1812;DHT22;904;47.814;11.134;2022-07-10T08:13:53;20.30;83.10
1812;DHT22;904;47.814;11.134;2022-07-10T08:16:20;20.10;82.20
1812;DHT22;904;47.814;11.134;2022-07-10T08:18:48;20.10;83.00
1812;DHT22;904;47.814;11.134;2022-07-10T08:21:17;20.10;83.40
1812;DHT22;904;47.814;11.134;2022-07-10T08:23:44;20.10;83.30
1812;DHT22;904;47.814;11.134;2022-07-10T08:26:11;20.10;82.90
1812;DHT22;904;47.814;11.134;2022-07-10T08:28:38;20.00;83.20
1812;DHT22;904;47.814;11.134;2022-07-10T08:31:05;20.10;83.40
1812;DHT22;904;47.814;11.134;2022-07-10T08:33:32;20.10;83.20
1812;DHT22;904;47.814;11.134;2022-07-10T08:35:59;20.00;82.50
1812;DHT22;904;47.814;11.134;2022-07-10T08:38:28;20.10;82.30
1812;DHT22;904;47.814;11.134;2022-07-10T08:40:56;20.00;82.40
1812;DHT22;904;47.814;11.134;2022-07-10T08:43:24;20.10;82.50
1812;DHT22;904;47.814;11.134;2022-07-10T08:45:52;20.10;82.10
1812;DHT22;904;47.814;11.134;2022-07-10T08:48:22;20.20;82.60
1812;DHT22;904;47.814;11.134;2022-07-10T08:50:52;20.30;82.60
1812;DHT22;904;47.814;11.134;2022-07-10T08:53:26;20.50;82.60
1812;DHT22;904;47.814;11.134;2022-07-10T08:55:57;20.60;79.70
1812;DHT22;904;47.814;11.134;2022-07-10T08:58:25;20.80;80.00
1812;DHT22;904;47.814;11.134;2022-07-10T09:00:53;21.20;80.60
1812;DHT22;904;47.814;11.134;2022-07-10T09:03:20;21.70;80.20
1812;DHT22;904;47.814;11.134;2022-07-10T09:05:47;22.20;78.60
1812;DHT22;904;47.814;11.134;2022-07-10T09:08:23;22.40;77.60
1812;DHT22;904;47.814;11.134;2022-07-10T09:10:50;22.70;75.00
1812;DHT22;904;47.814;11.134;2022-07-10T09:13:19;22.90;74.90
1812;DHT22;904;47.814;11.134;2022-07-10T09:15:49;23.20;72.80
1812;DHT22;904;47.814;11.134;2022-07-10T09:18:19;23.40;68.10
1812;DHT22;904;47.814;11.134;2022-07-10T09:20:50;23.30;65.70
1812;DHT22;904;47.814;11.134;2022-07-10T09:23:18;23.10;64.90
1812;DHT22;904;47.814;11.134;2022-07-10T09:25:46;22.90;65.30
1812;DHT22;904;47.814;11.134;2022-07-10T09:28:18;23.00;66.40
1812;DHT22;904;47.814;11.134;2022-07-10T09:30:45;23.10;67.60
1812;DHT22;904;47.814;11.134;2022-07-10T09:33:20;23.30;68.40
1812;DHT22;904;47.814;11.134;2022-07-10T09:36:02;23.50;66.00
1812;DHT22;904;47.814;11.134;2022-07-10T09:38:54;23.60;65.20
1812;DHT22;904;47.814;11.134;2022-07-10T09:41:24;23.70;61.00
1812;DHT22;904;47.814;11.134;2022-07-10T09:43:55;23.70;61.90
1812;DHT22;904;47.814;11.134;2022-07-10T09:46:24;23.80;62.70
1812;DHT22;904;47.814;11.134;2022-07-10T09:49:07;23.90;60.10
1812;DHT22;904;47.814;11.134;2022-07-10T09:51:37;24.00;61.00
1812;DHT22;904;47.814;11.134;2022-07-10T09:54:07;24.10;61.90
1812;DHT22;904;47.814;11.134;2022-07-10T09:56:39;24.20;62.40
1812;DHT22;904;47.814;11.134;2022-07-10T09:59:13;24.40;61.40
1812;DHT22;904;47.814;11.134;2022-07-10T10:01:45;24.60;62.10
1812;DHT22;904;47.814;11.134;2022-07-10T10:04:13;24.70;61.60
1812;DHT22;904;47.814;11.134;2022-07-10T10:06:41;24.90;60.50
1812;DHT22;904;47.814;11.134;2022-07-10T10:09:14;25.10;59.10
1812;DHT22;904;47.814;11.134;2022-07-10T10:11:44;25.30;67.20
1812;DHT22;904;47.814;11.134;2022-07-10T10:14:15;25.70;68.50
1812;DHT22;904;47.814;11.134;2022-07-10T10:16:46;26.20;67.50
1812;DHT22;904;47.814;11.134;2022-07-10T10:19:14;26.40;58.40
1812;DHT22;904;47.814;11.134;2022-07-10T10:22:01;26.40;57.30
1812;DHT22;904;47.814;11.134;2022-07-10T10:24:32;26.40;56.00
1812;DHT22;904;47.814;11.134;2022-07-10T10:27:00;26.20;57.10
1812;DHT22;904;47.814;11.134;2022-07-10T10:29:30;26.10;57.00
1812;DHT22;904;47.814;11.134;2022-07-10T10:31:57;25.90;57.30
1812;DHT22;904;47.814;11.134;2022-07-10T10:34:41;26.00;58.70
1812;DHT22;904;47.814;11.134;2022-07-10T10:37:33;26.10;57.70
1812;DHT22;904;47.814;11.134;2022-07-10T10:40:02;26.20;57.30
1812;DHT22;904;47.814;11.134;2022-07-10T10:42:33;26.30;58.00
1812;DHT22;904;47.814;11.134;2022-07-10T10:45:25;26.40;56.80
1812;DHT22;904;47.814;11.134;2022-07-10T10:48:00;26.40;55.40
1812;DHT22;904;47.814;11.134;2022-07-10T10:50:39;26.50;56.60
1812;DHT22;904;47.814;11.134;2022-07-10T10:53:17;26.50;56.90
1812;DHT22;904;47.814;11.134;2022-07-10T10:56:21;26.60;57.30
1812;DHT22;904;47.814;11.134;2022-07-10T10:58:50;26.80;57.00
1812;DHT22;904;47.814;11.134;2022-07-10T11:01:28;26.90;55.60
1812;DHT22;904;47.814;11.134;2022-07-10T11:04:16;26.70;53.80
1812;DHT22;904;47.814;11.134;2022-07-10T11:06:48;26.60;54.60
1812;DHT22;904;47.814;11.134;2022-07-10T11:09:25;26.20;53.40
1812;DHT22;904;47.814;11.134;2022-07-10T11:11:59;25.90;53.60
1812;DHT22;904;47.814;11.134;2022-07-10T11:14:28;25.50;54.40
1812;DHT22;904;47.814;11.134;2022-07-10T11:16:57;25.10;54.60
1812;DHT22;904;47.814;11.134;2022-07-10T11:19:25;24.80;55.10
1812;DHT22;904;47.814;11.134;2022-07-10T11:24:51;24.40;57.10
1812;DHT22;904;47.814;11.134;2022-07-10T11:27:31;24.50;58.30
1812;DHT22;904;47.814;11.134;2022-07-10T11:30:01;24.80;59.80
1812;DHT22;904;47.814;11.134;2022-07-10T11:32:30;25.10;59.80
1812;DHT22;904;47.814;11.134;2022-07-10T11:34:57;25.30;58.20
1812;DHT22;904;47.814;11.134;2022-07-10T11:37:25;25.50;57.50
1812;DHT22;904;47.814;11.134;2022-07-10T11:40:08;25.60;56.40
1812;DHT22;904;47.814;11.134;2022-07-10T11:42:52;25.80;57.90
1812;DHT22;904;47.814;11.134;2022-07-10T11:45:27;25.90;56.00
1812;DHT22;904;47.814;11.134;2022-07-10T11:47:58;26.10;55.10
1812;DHT22;904;47.814;11.134;2022-07-10T11:50:26;26.20;55.70
1812;DHT22;904;47.814;11.134;2022-07-10T11:52:54;26.30;56.30
1812;DHT22;904;47.814;11.134;2022-07-10T11:55:22;26.50;57.20
1812;DHT22;904;47.814;11.134;2022-07-10T11:57:50;26.80;56.90
1812;DHT22;904;47.814;11.134;2022-07-10T12:00:23;26.90;53.90
1812;DHT22;904;47.814;11.134;2022-07-10T12:02:51;26.80;53.40
1812;DHT22;904;47.814;11.134;2022-07-10T12:05:35;26.80;53.60
1812;DHT22;904;47.814;11.134;2022-07-10T12:08:03;26.80;53.70
1812;DHT22;904;47.814;11.134;2022-07-10T12:10:33;26.70;53.20
1812;DHT22;904;47.814;11.134;2022-07-10T12:13:05;26.60;52.90
1812;DHT22;904;47.814;11.134;2022-07-10T12:15:33;26.50;54.10
1812;DHT22;904;47.814;11.134;2022-07-10T12:18:03;26.30;52.10
1812;DHT22;904;47.814;11.134;2022-07-10T12:20:31;26.00;51.90
1812;DHT22;904;47.814;11.134;2022-07-10T12:23:01;25.70;51.40
1812;DHT22;904;47.814;11.134;2022-07-10T12:25:28;25.60;53.20
1812;DHT22;904;47.814;11.134;2022-07-10T12:27:56;25.50;54.00
1812;DHT22;904;47.814;11.134;2022-07-10T12:30:37;25.40;53.40
1812;DHT22;904;47.814;11.134;2022-07-10T12:33:09;25.30;53.70
1812;DHT22;904;47.814;11.134;2022-07-10T12:35:51;25.20;53.50
1812;DHT22;904;47.814;11.134;2022-07-10T12:38:23;25.10;55.00
1812;DHT22;904;47.814;11.134;2022-07-10T12:40:51;25.10;56.00
1812;DHT22;904;47.814;11.134;2022-07-10T12:43:26;25.10;55.60
1812;DHT22;904;47.814;11.134;2022-07-10T12:46:11;25.20;55.10
1812;DHT22;904;47.814;11.134;2022-07-10T12:48:41;25.30;54.30
1812;DHT22;904;47.814;11.134;2022-07-10T12:51:20;25.50;54.40
1812;DHT22;904;47.814;11.134;2022-07-10T12:53:49;25.60;54.10
1812;DHT22;904;47.814;11.134;2022-07-10T12:56:40;25.80;54.80
1812;DHT22;904;47.814;11.134;2022-07-10T12:59:13;25.80;52.40
1812;DHT22;904;47.814;11.134;2022-07-10T13:01:42;25.90;52.30
1812;DHT22;904;47.814;11.134;2022-07-10T13:04:10;25.90;51.60
1812;DHT22;904;47.814;11.134;2022-07-10T13:06:39;26.00;50.80
1812;DHT22;904;47.814;11.134;2022-07-10T13:09:22;26.10;52.10
1812;DHT22;904;47.814;11.134;2022-07-10T13:11:49;26.30;52.60
1812;DHT22;904;47.814;11.134;2022-07-10T13:14:16;26.40;52.60
1812;DHT22;904;47.814;11.134;2022-07-10T13:16:44;26.40;49.40
1812;DHT22;904;47.814;11.134;2022-07-10T13:19:11;26.20;49.60
1812;DHT22;904;47.814;11.134;2022-07-10T13:21:39;26.10;50.40
1812;DHT22;904;47.814;11.134;2022-07-10T13:24:06;26.10;49.70
1812;DHT22;904;47.814;11.134;2022-07-10T13:26:35;26.00;50.30
1812;DHT22;904;47.814;11.134;2022-07-10T13:29:03;26.00;50.80
1812;DHT22;904;47.814;11.134;2022-07-10T13:31:30;26.00;49.20
1812;DHT22;904;47.814;11.134;2022-07-10T13:33:57;25.90;48.30
1812;DHT22;904;47.814;11.134;2022-07-10T13:36:24;25.80;48.40
1812;DHT22;904;47.814;11.134;2022-07-10T13:38:51;25.80;48.70
1812;DHT22;904;47.814;11.134;2022-07-10T13:41:20;25.80;48.80
1812;DHT22;904;47.814;11.134;2022-07-10T13:43:49;25.80;48.70
1812;DHT22;904;47.814;11.134;2022-07-10T13:46:16;25.90;50.20
1812;DHT22;904;47.814;11.134;2022-07-10T13:48:43;25.90;50.40
1812;DHT22;904;47.814;11.134;2022-07-10T13:51:11;25.80;50.30
1812;DHT22;904;47.814;11.134;2022-07-10T13:53:38;25.80;49.50
1812;DHT22;904;47.814;11.134;2022-07-10T13:56:06;25.80;50.00
1812;DHT22;904;47.814;11.134;2022-07-10T13:58:34;25.80;49.70
1812;DHT22;904;47.814;11.134;2022-07-10T14:01:03;25.80;48.90
1812;DHT22;904;47.814;11.134;2022-07-10T14:03:31;25.70;48.80
1812;DHT22;904;47.814;11.134;2022-07-10T14:05:58;25.70;48.50
1812;DHT22;904;47.814;11.134;2022-07-10T14:08:26;25.60;49.60
1812;DHT22;904;47.814;11.134;2022-07-10T14:10:53;25.70;49.40
1812;DHT22;904;47.814;11.134;2022-07-10T14:13:21;25.80;49.50
1812;DHT22;904;47.814;11.134;2022-07-10T14:15:48;25.90;49.50
1812;DHT22;904;47.814;11.134;2022-07-10T14:18:17;25.90;49.50
1812;DHT22;904;47.814;11.134;2022-07-10T14:21:00;26.00;48.20
1812;DHT22;904;47.814;11.134;2022-07-10T14:23:36;26.10;47.90
1812;DHT22;904;47.814;11.134;2022-07-10T14:26:05;26.10;46.70
1812;DHT22;904;47.814;11.134;2022-07-10T14:28:32;26.10;47.60
1812;DHT22;904;47.814;11.134;2022-07-10T14:31:00;26.00;47.50
1812;DHT22;904;47.814;11.134;2022-07-10T14:33:31;25.90;48.30
1812;DHT22;904;47.814;11.134;2022-07-10T14:35:59;26.00;49.40
1812;DHT22;904;47.814;11.134;2022-07-10T14:38:27;26.10;49.40
1812;DHT22;904;47.814;11.134;2022-07-10T14:40:55;26.20;48.80
1812;DHT22;904;47.814;11.134;2022-07-10T14:43:23;26.30;48.30
1812;DHT22;904;47.814;11.134;2022-07-10T14:45:50;26.30;47.80
1812;DHT22;904;47.814;11.134;2022-07-10T14:48:18;26.40;47.80
1812;DHT22;904;47.814;11.134;2022-07-10T14:50:46;26.40;47.80
1812;DHT22;904;47.814;11.134;2022-07-10T14:53:14;26.40;47.20
1812;DHT22;904;47.814;11.134;2022-07-10T14:55:41;26.40;47.50
1812;DHT22;904;47.814;11.134;2022-07-10T14:58:08;26.40;46.60
1812;DHT22;904;47.814;11.134;2022-07-10T15:00:35;26.40;45.60
1812;DHT22;904;47.814;11.134;2022-07-10T15:03:02;26.20;44.90
1812;DHT22;904;47.814;11.134;2022-07-10T15:05:30;26.10;44.80
1812;DHT22;904;47.814;11.134;2022-07-10T15:08:00;25.90;45.90
1812;DHT22;904;47.814;11.134;2022-07-10T15:10:29;25.80;46.70
1812;DHT22;904;47.814;11.134;2022-07-10T15:12:58;25.70;46.50
1812;DHT22;904;47.814;11.134;2022-07-10T15:15:25;25.70;46.50
1812;DHT22;904;47.814;11.134;2022-07-10T15:17:53;25.70;46.50
1812;DHT22;904;47.814;11.134;2022-07-10T15:20:20;25.60;46.40
1812;DHT22;904;47.814;11.134;2022-07-10T15:22:47;25.50;46.60
1812;DHT22;904;47.814;11.134;2022-07-10T15:25:16;25.40;45.80
1812;DHT22;904;47.814;11.134;2022-07-10T15:27:43;25.30;46.30
1812;DHT22;904;47.814;11.134;2022-07-10T15:30:10;25.20;45.90
1812;DHT22;904;47.814;11.134;2022-07-10T15:32:38;25.10;46.30
1812;DHT22;904;47.814;11.134;2022-07-10T15:35:06;25.00;46.50
1812;DHT22;904;47.814;11.134;2022-07-10T15:37:33;24.90;47.00
1812;DHT22;904;47.814;11.134;2022-07-10T15:40:01;24.80;46.70
1812;DHT22;904;47.814;11.134;2022-07-10T15:42:29;24.60;47.10
1812;DHT22;904;47.814;11.134;2022-07-10T15:44:56;24.50;47.70
1812;DHT22;904;47.814;11.134;2022-07-10T15:47:24;24.50;48.00
1812;DHT22;904;47.814;11.134;2022-07-10T15:49:51;24.40;48.30
1812;DHT22;904;47.814;11.134;2022-07-10T15:52:18;24.30;48.60
1812;DHT22;904;47.814;11.134;2022-07-10T15:54:46;24.30;48.70
1812;DHT22;904;47.814;11.134;2022-07-10T15:57:13;24.30;48.20
1812;DHT22;904;47.814;11.134;2022-07-10T15:59:41;24.30;48.60
1812;DHT22;904;47.814;11.134;2022-07-10T16:02:08;24.30;48.30
1812;DHT22;904;47.814;11.134;2022-07-10T16:04:36;24.40;48.50
1812;DHT22;904;47.814;11.134;2022-07-10T16:07:04;24.40;48.20
1812;DHT22;904;47.814;11.134;2022-07-10T16:09:31;24.50;48.40
1812;DHT22;904;47.814;11.134;2022-07-10T16:11:58;24.40;48.90
1812;DHT22;904;47.814;11.134;2022-07-10T16:14:25;24.40;47.70
1812;DHT22;904;47.814;11.134;2022-07-10T16:16:54;24.30;48.30
1812;DHT22;904;47.814;11.134;2022-07-10T16:19:21;24.30;48.00